Kirishima Maru No.5 — JD2506 — position and weather

sailwx.info

Track history (hours):
 
Tides and Currents Weather Stations Pressure Air Temp Water Temp Dewpoint Dewpoint Depression Visibility Wind Speed Wind Dir Waves Ship Positions

Kirishima Maru No.5

Last reported at 2014-Sep-29 09:31 UTC. Time now 2014-Oct-01 00:01 UTC.
Position N 34°03' E 134°58'.

Length 105 m; draft 5.4 m.

Type: Tanker. MMSI: 431000338.

Date/timePositionNaut miles runAvg speedWind from/ knotsBaromVisibWave heightAir tempDewpointWater temp
2014-Sep-29 09:31N 34°03' E 134°58'1716.1
2014-Sep-29 08:29N 34°20' E 134°59'1415.4
2014-Sep-29 07:33N 34°34' E 135°03'  
2014-Sep-26 10:11N 34°37' E 134°56'812.7
2014-Sep-26 09:34N 34°35' E 135°05'1513.9
2014-Sep-26 08:27N 34°20' E 135°01'1212.9
2014-Sep-26 07:33N 34°08' E 134°59'24410.4
2014-Sep-25 08:11N 35°12' E 139°46'711.6
2014-Sep-25 07:33N 35°19' E 139°43'4 3.5
2014-Sep-25 06:34N 35°22' E 139°44'0 0.0
2014-Sep-25 05:34N 35°22' E 139°44'0 0.0
2014-Sep-25 04:33N 35°22' E 139°44'0 0.0
2014-Sep-25 03:34N 35°22' E 139°44'0 0.0
2014-Sep-25 02:34N 35°22' E 139°44'0 0.0
2014-Sep-25 01:33N 35°22' E 139°44'0 0.0
2014-Sep-25 00:33N 35°22' E 139°44'0 0.0
2014-Sep-24 23:33N 35°22' E 139°44'0 0.0
2014-Sep-24 22:33N 35°22' E 139°44'0 0.0
2014-Sep-24 21:33N 35°22' E 139°44'0 0.0
2014-Sep-24 20:33N 35°22' E 139°44'0 0.0
2014-Sep-24 19:33N 35°22' E 139°44'0 0.0
2014-Sep-24 18:33N 35°22' E 139°44'0 0.0
2014-Sep-24 17:33N 35°22' E 139°44'0 0.0
2014-Sep-24 16:33N 35°22' E 139°44'0 0.0
2014-Sep-24 15:33N 35°22' E 139°44'0 0.0
2014-Sep-24 14:33N 35°22' E 139°44'0 0.0
2014-Sep-24 13:34N 35°22' E 139°44'0 0.1
2014-Sep-24 12:33N 35°22' E 139°44'6 6.4
2014-Sep-24 11:33N 35°16' E 139°46'  
2014-Sep-20 08:30N 35°10' E 139°45'1213.0
2014-Sep-20 07:33N 35°22' E 139°42'10 1.2
2014-Sep-19 23:16N 35°31' E 139°46'4 5.7
2014-Sep-19 22:33N 35°29' E 139°42'5 5.2
2014-Sep-19 21:32N 35°24' E 139°44'0 0.0
2014-Sep-19 20:32N 35°24' E 139°44'0 0.0
2014-Sep-19 19:32N 35°24' E 139°44'0 0.0
2014-Sep-19 18:32N 35°24' E 139°44'0 0.0
2014-Sep-19 17:29N 35°24' E 139°44'0 0.0
2014-Sep-19 16:32N 35°24' E 139°44'0 0.0
2014-Sep-19 15:32N 35°24' E 139°44'0 0.1
2014-Sep-19 14:32N 35°24' E 139°44'0 0.0
2014-Sep-19 13:29N 35°24' E 139°44'0 0.0
2014-Sep-19 12:29N 35°24' E 139°44'0 0.0
2014-Sep-19 11:32N 35°24' E 139°44'0 0.0
2014-Sep-19 10:29N 35°24' E 139°44'  
Track history (hours):
 
Tides and Currents Weather Stations Pressure Air Temp Water Temp Dewpoint Dewpoint Depression Visibility Wind Speed Wind Dir Waves Ship Positions

Kirishima Maru No.5

Last reported at 2014-Sep-29 09:31 UTC. Time now 2014-Oct-01 00:01 UTC.
Position N 34°03' E 134°58'.

Length 105 m; draft 5.4 m.

Type: Tanker. MMSI: 431000338.

Date/timePositionNaut miles runAvg speedWind from/ knotsBaromVisibWave heightAir tempDewpointWater temp
2014-Sep-29 09:31N 34°03' E 134°58'1716.1
2014-Sep-29 08:29N 34°20' E 134°59'1415.4
2014-Sep-29 07:33N 34°34' E 135°03'  
2014-Sep-26 10:11N 34°37' E 134°56'812.7
2014-Sep-26 09:34N 34°35' E 135°05'1513.9
2014-Sep-26 08:27N 34°20' E 135°01'1212.9
2014-Sep-26 07:33N 34°08' E 134°59'24410.4
2014-Sep-25 08:11N 35°12' E 139°46'711.6
2014-Sep-25 07:33N 35°19' E 139°43'4 3.5
2014-Sep-25 06:34N 35°22' E 139°44'0 0.0
2014-Sep-25 05:34N 35°22' E 139°44'0 0.0
2014-Sep-25 04:33N 35°22' E 139°44'0 0.0
2014-Sep-25 03:34N 35°22' E 139°44'0 0.0
2014-Sep-25 02:34N 35°22' E 139°44'0 0.0
2014-Sep-25 01:33N 35°22' E 139°44'0 0.0
2014-Sep-25 00:33N 35°22' E 139°44'0 0.0
2014-Sep-24 23:33N 35°22' E 139°44'0 0.0
2014-Sep-24 22:33N 35°22' E 139°44'0 0.0
2014-Sep-24 21:33N 35°22' E 139°44'0 0.0
2014-Sep-24 20:33N 35°22' E 139°44'0 0.0
2014-Sep-24 19:33N 35°22' E 139°44'0 0.0
2014-Sep-24 18:33N 35°22' E 139°44'0 0.0
2014-Sep-24 17:33N 35°22' E 139°44'0 0.0
2014-Sep-24 16:33N 35°22' E 139°44'0 0.0
2014-Sep-24 15:33N 35°22' E 139°44'0 0.0
2014-Sep-24 14:33N 35°22' E 139°44'0 0.0
2014-Sep-24 13:34N 35°22' E 139°44'0 0.1
2014-Sep-24 12:33N 35°22' E 139°44'6 6.4
2014-Sep-24 11:33N 35°16' E 139°46'  
2014-Sep-20 08:30N 35°10' E 139°45'1213.0
2014-Sep-20 07:33N 35°22' E 139°42'10 1.2
2014-Sep-19 23:16N 35°31' E 139°46'4 5.7
2014-Sep-19 22:33N 35°29' E 139°42'5 5.2
2014-Sep-19 21:32N 35°24' E 139°44'0 0.0
2014-Sep-19 20:32N 35°24' E 139°44'0 0.0
2014-Sep-19 19:32N 35°24' E 139°44'0 0.0
2014-Sep-19 18:32N 35°24' E 139°44'0 0.0
2014-Sep-19 17:29N 35°24' E 139°44'0 0.0
2014-Sep-19 16:32N 35°24' E 139°44'0 0.0
2014-Sep-19 15:32N 35°24' E 139°44'0 0.1
2014-Sep-19 14:32N 35°24' E 139°44'0 0.0
2014-Sep-19 13:29N 35°24' E 139°44'0 0.0
2014-Sep-19 12:29N 35°24' E 139°44'0 0.0
2014-Sep-19 11:32N 35°24' E 139°44'0 0.0
2014-Sep-19 10:29N 35°24' E 139°44'  

Dump ship's entire track history